Pauma (217, PY1) Station Data

Red Flag Warning: No
Fire Weather Zone: 250
SDGE Region: North East
Lat/Lon: 33.312/-117.003

Observations

Time Wind Speed/Gust Temp(F) RH Fuel Moist Fuel Temp(F) Dewpt(F) Tmax(F) Tmin(F) Accum Precip 10-min Precip SL Press(mb)
6/27 4:50pm 262 1 G 7 94° 17% - - 42° 100° 52.2° - - -
6/27 4:40pm 241 0 G 6 94° 15% - - 40° 100° 52.2° - - -
6/27 4:30pm 261 0 G 4 94° 17% - - 43° 100° 52.2° - - -
6/27 4:20pm 269 1 G 8 94° 19% - - 45° 100° 52.2° - - -
6/27 4:10pm 292 1 G 5 95° 15% - - 40° 100° 52.2° - - -
6/27 4:00pm 281 1 G 7 94° 15% - - 39° 100° 52.2° - - -
6/27 3:50pm 256 2 G 8 94° 14% - - 39° 100° 52.2° - - -
6/27 3:40pm 252 3 G 10 94° 15% - - 39° 100° 52.2° - - -
6/27 3:30pm 249 6 G 8 95° 13% - - 36° 100° 52.2° - - -
6/27 3:20pm 248 6 G 14 95° 13% - - 37° 100° 52.2° - - -
6/27 3:10pm 247 6 G 12 95° 15% - - 39° 100° 52.2° - - -
6/27 3:00pm 247 7 G 14 95° 14% - - 38° 100° 52.2° - - -
6/27 2:50pm 252 7 G 15 95° 14% - - 38° 100° 52.2° - - -
6/27 2:40pm 247 6 G 15 96° 14% - - 38° 100° 52.2° - - -
6/27 2:30pm 287 6 G 13 96° 12% - - 36° 100° 52.2° - - -
6/27 2:20pm 275 6 G 14 96° 13% - - 37° 100° 52.2° - - -
6/27 2:10pm 247 5 G 13 97° 11% - - 34° 100° 52.2° - - -
6/27 2:00pm 276 5 G 13 97° 11% - - 33° 100° 52.2° - - -
6/27 1:50pm 288 5 G 12 98° 10% - - 32° 100° 52.2° - - -
6/27 1:40pm 284 6 G 13 98° 10% - - 33° 100° 52.2° - - -
6/27 1:30pm 246 6 G 13 97° 12% - - 36° 100° 52.2° - - -
6/27 1:20pm 258 6 G 15 97° 12% - - 36° 100° 52.2° - - -
6/27 1:10pm 249 5 G 15 98° 12% - - 36° 100° 52.2° - - -
6/27 1:00pm 241 5 G 14 98° 10% - - 33° 100° 52.2° - - -
6/27 12:50pm 264 5 G 15 98° 11% - - 35° 100° 52.2° - - -
6/27 12:40pm 249 5 G 15 98° 10% - - 33° 100° 52.2° - - -
6/27 12:30pm 251 3 G 13 98° 10% - - 32° 100° 52.2° - - -
6/27 12:20pm 269 4 G 13 99° 9% - - 31° 100° 52.2° - - -
6/27 12:10pm 238 4 G 13 97° 8% - - 27° 98.4° 52.2° - - -
6/27 12:00pm 239 4 G 15 98° 8% - - 27° 98.1° 52.2° - - -
6/27 11:50am 233 5 G 12 97° 8% - - 26° 97.8° 52.2° - - -
6/27 11:40am 246 5 G 13 97° 10% - - 30° 97.5° 52.2° - - -
6/27 11:30am 241 2 G 12 97° 10% - - 32° 97.5° 52.2° - - -
6/27 11:20am 10 3 G 6 96° 11% - - 33° 97.3° 52.2° - - -
6/27 11:10am 30 4 G 7 95° 12% - - 34° 97.2° 52.2° - - -
6/27 11:00am 1 5 G 8 96° 12% - - 36° 97.2° 52.2° - - -
6/27 10:50am 1 5 G 8 94° 13% - - 35° 94.6° 52.2° - - -
6/27 10:40am 360 5 G 8 93° 13% - - 35° 94.3° 52.2° - - -
6/27 10:30am 358 6 G 8 93° 14% - - 36° 93.3° 52.2° - - -
6/27 10:20am 354 5 G 9 92° 14% - - 37° 93° 52.2° - - -
6/27 10:10am 355 5 G 8 92° 15% - - 37° 92.9° 52.2° - - -
6/27 10:00am 4 3 G 8 91° 16% - - 38° 92.9° 52.2° - - -
6/27 9:50am 13 2 G 7 92° 15% - - 37° 92.9° 52.2° - - -
6/27 9:40am 37 2 G 6 90° 15% - - 36° 91.7° 52.2° - - -
6/27 9:30am 24 1 G 4 89° 16% - - 37° 90.2° 52.2° - - -
6/27 9:20am 288 1 G 2 87° 19% - - 40° 88.8° 52.2° - - -
6/27 9:10am 237 1 G 3 86° 20% - - 41° 86.8° 52.2° - - -
6/27 9:00am 321 1 G 3 83° 22% - - 41° 85.1° 52.2° - - -
6/27 8:50am 341 1 G 3 82° 24% - - 41° 82.7° 52.2° - - -
6/27 8:40am 328 1 G 3 80° 25% - - 42° 81.5° 52.2° - - -
6/27 8:30am 296 1 G 3 78° 27% - - 41° 78.9° 52.2° - - -
6/27 8:20am 291 0 G 3 77° 28% - - 41° 77.9° 52.2° - - -
6/27 8:10am 298 0 G 2 76° 27% - - 40° 77.9° 52.2° - - -
6/27 8:00am 177 0 G 1 73° 32% - - 42° 75.2° 52.2° - - -
6/27 7:50am 273 0 G 2 70° 37% - - 43° 71.6° 52.2° - - -
6/27 7:40am 261 0 G 2 69° 39% - - 43° 69.7° 52.2° - - -
6/27 7:30am 0 0 G 0 67° 44% - - 44° 68.7° 52.2° - - -
6/27 7:20am 0 0 G 0 64° 52% - - 46° 65.4° 52.2° - - -
6/27 7:10am 0 0 G 0 61° 58% - - 46° 65.1° 52.2° - - -
6/27 7:00am 0 0 G 0 58° 65% - - 46° 65.1° 52.2° - - -
6/27 6:50am 0 0 G 0 56° 71% - - 47° 65.1° 52.2° - - -
6/27 6:40am 0 0 G 0 54° 75% - - 46° 65.1° 52.2° - - -
6/27 6:30am 0 0 G 0 53° 76% - - 46° 65.1° 52.2° - - -
6/27 6:20am 0 0 G 0 54° 74% - - 46° 65.1° 52.2° - - -
6/27 6:10am 0 0 G 0 53° 78% - - 46° 65.1° 52.2° - - -
6/27 6:00am 0 0 G 0 53° 76% - - 46° 65.1° 52.4° - - -
6/27 5:50am 0 0 G 0 53° 77% - - 46° 65.1° 52.4° - - -
6/27 5:40am 0 0 G 0 53° 78% - - 47° 65.1° 52.4° - - -
6/27 5:30am 0 0 G 0 53° 79% - - 47° 65.1° 52.4° - - -
6/27 5:20am 0 0 G 0 53° 78% - - 46° 65.1° 52.4° - - -
6/27 5:10am 0 0 G 0 54° 77% - - 47° 65.1° 53.3° - - -
6/27 5:00am 0 0 G 0 54° 78% - - 47° 65.1° 53.3° - - -
6/27 4:50am 0 0 G 0 54° 78% - - 47° 65.1° 53.3° - - -
6/27 4:40am 0 0 G 0 55° 76% - - 47° 65.1° 53.9° - - -
6/27 4:30am 0 0 G 0 55° 76% - - 48° 65.1° 54.7° - - -
6/27 4:20am 0 0 G 0 55° 77% - - 48° 65.1° 54.7° - - -
6/27 4:10am 0 0 G 0 55° 76% - - 48° 65.1° 55.1° - - -
6/27 4:00am 0 0 G 0 56° 76% - - 48° 65.1° 55.1° - - -
6/27 3:50am 0 0 G 0 56° 77% - - 49° 65.1° 55.5° - - -
6/27 3:40am 0 0 G 0 56° 76% - - 49° 65.1° 55.6° - - -
6/27 3:30am 0 0 G 0 57° 75% - - 49° 65.1° 56.3° - - -
6/27 3:20am 0 0 G 0 57° 75% - - 49° 65.1° 56.3° - - -
6/27 3:10am 0 0 G 0 57° 74% - - 49° 65.1° 56.7° - - -
6/27 3:00am 0 0 G 0 58° 72% - - 49° 65.1° 57.1° - - -
6/27 2:50am 0 0 G 0 59° 72% - - 50° 65.1° 58.4° - - -
6/27 2:40am 0 0 G 0 59° 71% - - 50° 65.1° 58.4° - - -
6/27 2:30am 0 0 G 0 59° 71% - - 49° 65.1° 58.4° - - -
6/27 2:20am 0 0 G 0 60° 70% - - 50° 65.1° 58.9° - - -
6/27 2:10am 0 0 G 0 60° 70% - - 50° 65.1° 59.1° - - -
6/27 2:00am 0 0 G 0 61° 65% - - 49° 65.1° 59.3° - - -
6/27 1:50am 0 0 G 0 60° 69% - - 50° 65.1° 60° - - -
6/27 1:40am 0 0 G 0 61° 70% - - 51° 65.1° 60.3° - - -
6/27 1:30am 0 0 G 0 61° 69% - - 51° 65.1° 60.5° - - -
6/27 1:20am 0 0 G 0 61° 67% - - 50° 65.1° 60.6° - - -
6/27 1:10am 0 0 G 0 62° 67% - - 51° 65.1° 61.1° - - -
6/27 1:00am 0 0 G 0 62° 67% - - 51° 65.1° 61.4° - - -
6/27 12:50am 0 0 G 0 62° 65% - - 51° 65.1° 61.9° - - -
6/27 12:40am 0 0 G 0 63° 64% - - 51° 65.1° 62.8° - - -
6/27 12:30am 0 0 G 0 63° 63% - - 51° 65.1° 63.1° - - -
6/27 12:20am 0 0 G 0 64° 61% - - 50° 65.1° 63.2° - - -
6/27 12:10am 0 0 G 0 64° 60% - - 50° 65.1° 64° - - -
6/27 12:00am 0 0 G 0 65° 61% - - 51° 103.1° 57.9° - - -
6/26 11:50pm 0 0 G 0 65° 58% - - 50° 103.1° 57.9° - - -
6/26 11:40pm 0 0 G 0 66° 57% - - 50° 103.1° 57.9° - - -
6/26 11:30pm 0 0 G 0 67° 57% - - 51° 103.1° 57.9° - - -
6/26 11:20pm 0 0 G 0 67° 58% - - 52° 103.1° 57.9° - - -
6/26 11:10pm 0 0 G 0 68° 51% - - 49° 103.1° 57.9° - - -
6/26 11:00pm 0 0 G 0 68° 53% - - 50° 103.1° 57.9° - - -
6/26 10:50pm 0 0 G 0 68° 54% - - 50° 103.1° 57.9° - - -
6/26 10:40pm 143 1 G 3 68° 57% - - 53° 103.1° 57.9° - - -
6/26 10:30pm 103 2 G 4 69° 54% - - 52° 103.1° 57.9° - - -
6/26 10:20pm 145 1 G 2 71° 48% - - 50° 103.1° 57.9° - - -
6/26 10:10pm 117 0 G 2 71° 47% - - 50° 103.1° 57.9° - - -
6/26 10:00pm 0 0 G 0 71° 45% - - 49° 103.1° 57.9° - - -
6/26 9:50pm 130 1 G 2 72° 47% - - 51° 103.1° 57.9° - - -
6/26 9:40pm 130 1 G 2 74° 43% - - 49° 103.1° 57.9° - - -
6/26 9:30pm 182 1 G 2 74° 40% - - 48° 103.1° 57.9° - - -
6/26 9:20pm 204 1 G 2 75° 38% - - 48° 103.1° 57.9° - - -
6/26 9:10pm 113 0 G 2 77° 36% - - 48° 103.1° 57.9° - - -
6/26 9:00pm 144 0 G 2 77° 36% - - 48° 103.1° 57.9° - - -
6/26 8:50pm 146 1 G 1 78° 37% - - 50° 103.1° 57.9° - - -
6/26 8:40pm 113 1 G 2 79° 33% - - 48° 103.1° 57.9° - - -
6/26 8:30pm 142 2 G 3 81° 29% - - 45° 103.1° 57.9° - - -
6/26 8:20pm 125 2 G 3 82° 26% - - 44° 103.1° 57.9° - - -
6/26 8:10pm 147 2 G 3 84° 24% - - 43° 103.1° 57.9° - - -
6/26 8:00pm 141 1 G 3 86° 23% - - 43° 103.1° 57.9° - - -
6/26 7:50pm 213 1 G 2 89° 20% - - 43° 103.1° 57.9° - - -
6/26 7:40pm 312 2 G 3 91° 18% - - 42° 103.1° 57.9° - - -
6/26 7:30pm 291 3 G 5 92° 16% - - 40° 103.1° 57.9° - - -
6/26 7:20pm 258 4 G 6 93° 15% - - 39° 103.1° 57.9° - - -
6/26 7:10pm 264 4 G 7 94° 15% - - 40° 103.1° 57.9° - - -
6/26 7:00pm 277 4 G 7 95° 15% - - 40° 103.1° 57.9° - - -
6/26 6:50pm 269 4 G 7 95° 15% - - 40° 103.1° 57.9° - - -
6/26 6:40pm 255 5 G 8 95° 14% - - 39° 103.1° 57.9° - - -
6/26 6:30pm 246 6 G 9 96° 14% - - 38° 103.1° 57.9° - - -
6/26 6:20pm 257 6 G 10 96° 14% - - 39° 103.1° 57.9° - - -
6/26 6:10pm 243 6 G 11 97° 14% - - 39° 103.1° 57.9° - - -
6/26 6:00pm 268 6 G 10 97° 14% - - 40° 103.1° 57.9° - - -
6/26 5:50pm 259 7 G 11 98° 14% - - 41° 103.1° 57.9° - - -
6/26 5:40pm 259 7 G 11 99° 14% - - 41° 103.1° 57.9° - - -
6/26 5:30pm 265 7 G 11 99° 12% - - 38° 103.1° 57.9° - - -
6/26 5:20pm 260 8 G 13 99° 12% - - 38° 103.1° 57.9° - - -
6/26 5:10pm 254 9 G 13 100° 12% - - 39° 103.1° 57.9° - - -
6/26 5:00pm 258 9 G 12 100° 12% - - 39° 103.1° 57.9° - - -
6/26 4:50pm 250 10 G 13 100° 13% - - 40° 103.1° 57.9° - - -
6/26 4:40pm 253 10 G 14 100° 13% - - 41° 103.1° 57.9° - - -
6/26 4:30pm 250 9 G 14 100° 13% - - 41° 103.1° 57.9° - - -
6/26 4:20pm 264 9 G 15 102° 13% - - 41° 103.1° 57.9° - - -
6/26 4:10pm 253 10 G 15 101° 13% - - 41° 103.1° 57.9° - - -
6/26 4:00pm 252 10 G 15 101° 12% - - 40° 103.1° 57.9° - - -
6/26 3:50pm 248 9 G 13 101° 13% - - 40° 103.1° 57.9° - - -
6/26 3:40pm 254 8 G 14 101° 13% - - 40° 103.1° 57.9° - - -
6/26 3:30pm 254 9 G 14 101° 13% - - 42° 103.1° 57.9° - - -
6/26 3:20pm 256 6 G 17 102° 13% - - 42° 103.1° 57.9° - - -
6/26 3:10pm 281 6 G 11 102° 14% - - 45° 103.1° 57.9° - - -
6/26 3:00pm 301 6 G 16 101° 14% - - 43° 103° 57.9° - - -
6/26 2:50pm 310 8 G 12 101° 15% - - 45° 103° 57.9° - - -
6/26 2:40pm 294 8 G 16 102° 14% - - 44° 103° 57.9° - - -
6/26 2:30pm 286 1 G 14 102° 15% - - 46° 103° 57.9° - - -
6/26 2:20pm 316 0 G 27 102° 15% - - 45° 103° 57.9° - - -
6/26 2:10pm 0 0 G 0 101° 15% - - 45° 103° 57.9° - - -
6/26 2:00pm 0 0 G 0 101° 15% - - 45° 103° 57.9° - - -
6/26 1:50pm 0 0 G 0 101° 15% - - 45° 103° 57.9° - - -
6/26 1:40pm 0 0 G 0 101° 15% - - 44° 103° 57.9° - - -
6/26 1:30pm 0 0 G 0 101° 15% - - 45° 103° 57.9° - - -
6/26 1:20pm 0 0 G 0 101° 14% - - 44° 103° 57.9° - - -
6/26 1:10pm 0 0 G 0 102° 14% - - 43° 103° 57.9° - - -
6/26 1:00pm 0 0 G 0 102° 13% - - 42° 103° 57.9° - - -
6/26 12:50pm 0 0 G 0 102° 15% - - 44° 103° 57.9° - - -
6/26 12:40pm 0 0 G 0 101° 15% - - 45° 103° 57.9° - - -
6/26 12:30pm 0 0 G 0 102° 15% - - 45° 103° 57.9° - - -
6/26 12:20pm 0 0 G 0 102° 15% - - 44° 103° 57.9° - - -
6/26 12:10pm 0 0 G 0 101° 16% - - 47° 103° 57.9° - - -
6/26 12:00pm 0 0 G 0 102° 15% - - 46° 103° 57.9° - - -
6/26 11:50am 0 0 G 0 102° 15% - - 46° 103° 57.9° - - -
6/26 11:40am 0 0 G 0 102° 15% - - 45° 103° 57.9° - - -
6/26 11:30am 0 0 G 0 102° 13% - - 43° 103° 57.9° - - -
6/26 11:20am 0 0 G 0 102° 13% - - 42° 102.8° 57.9° - - -
6/26 11:10am 0 0 G 0 102° 13% - - 42° 102.7° 57.9° - - -
6/26 11:00am 0 0 G 0 101° 13% - - 41° 102.4° 57.9° - - -
6/26 10:50am 0 0 G 0 101° 15% - - 44° 101.7° 57.9° - - -
6/26 10:40am 0 0 G 0 101° 16% - - 46° 101.7° 57.9° - - -
6/26 10:30am 0 0 G 0 99° 17% - - 47° 99.8° 57.9° - - -
6/26 10:20am 0 0 G 0 97° 20% - - 49° 98.4° 57.9° - - -
6/26 10:10am 0 0 G 0 97° 19% - - 48° 97.8° 57.9° - - -
6/26 10:00am 0 0 G 0 96° 19% - - 48° 97.5° 57.9° - - -
6/26 9:50am 0 0 G 0 94° 21% - - 48° 96.1° 57.9° - - -
6/26 9:40am 0 0 G 0 92° 23% - - 49° 93.7° 57.9° - - -
6/26 9:30am 0 0 G 0 92° 24% - - 50° 92.6° 57.9° - - -
6/26 9:20am 0 0 G 0 90° 27% - - 51° 91° 57.9° - - -
6/26 9:10am 0 0 G 0 87° 28% - - 50° 87.9° 57.9° - - -
6/26 9:00am 0 0 G 0 85° 30% - - 50° 86.1° 57.9° - - -
6/26 8:50am 0 0 G 0 83° 33% - - 51° 84.4° 57.9° - - -
6/26 8:40am 0 0 G 0 81° 37% - - 52° 82.1° 57.9° - - -
6/26 8:30am 0 0 G 0 80° 40% - - 54° 81.1° 57.9° - - -
6/26 8:20am 0 0 G 0 79° 43% - - 55° 79.8° 57.9° - - -
6/26 8:10am 0 0 G 0 77° 46% - - 55° 78.5° 57.9° - - -
6/26 8:00am 0 0 G 0 75° 50% - - 55° 76.5° 57.9° - - -
6/26 7:50am 0 0 G 0 74° 53% - - 56° 74.6° 57.9° - - -
6/26 7:40am 0 0 G 0 72° 57% - - 56° 73° 57.9° - - -
6/26 7:30am 0 0 G 0 69° 63% - - 56° 71° 57.9° - - -
6/26 7:20am 0 0 G 0 67° 68% - - 56° 68.4° 57.9° - - -
6/26 7:10am 0 0 G 0 66° 70% - - 56° 68.4° 57.9° - - -
6/26 7:00am 0 0 G 0 64° 77% - - 56° 68.4° 57.9° - - -
6/26 6:50am 0 0 G 0 61° 84% - - 56° 68.4° 57.9° - - -
6/26 6:40am 0 0 G 0 59° 89% - - 56° 68.4° 57.9° - - -
6/26 6:30am 0 0 G 0 58° 88% - - 55° 68.4° 57.9° - - -
6/26 6:20am 0 0 G 0 58° 89% - - 55° 68.4° 57.9° - - -
6/26 6:10am 0 0 G 0 59° 89% - - 55° 68.4° 58° - - -
6/26 6:00am 0 0 G 0 59° 90% - - 56° 68.4° 58° - - -